sensor_id;sensor_type;location;lat;lon;timestamp;P1;durP1;ratioP1;P2;durP2;ratioP2
23434;SDS011;11890;45.380;11.028;2022-07-29T00:01:40;3.50;;;0.90;;
23434;SDS011;11890;45.380;11.028;2022-07-29T00:04:09;4.18;;;1.13;;
23434;SDS011;11890;45.380;11.028;2022-07-29T00:06:37;3.70;;;1.05;;
23434;SDS011;11890;45.380;11.028;2022-07-29T00:09:05;2.53;;;1.00;;
23434;SDS011;11890;45.380;11.028;2022-07-29T00:11:32;2.38;;;1.02;;
23434;SDS011;11890;45.380;11.028;2022-07-29T00:14:00;10.15;;;1.58;;
23434;SDS011;11890;45.380;11.028;2022-07-29T00:16:27;1.77;;;0.98;;
23434;SDS011;11890;45.380;11.028;2022-07-29T00:18:55;2.63;;;0.90;;
23434;SDS011;11890;45.380;11.028;2022-07-29T00:21:27;1.53;;;0.70;;
23434;SDS011;11890;45.380;11.028;2022-07-29T00:23:55;1.77;;;0.80;;
23434;SDS011;11890;45.380;11.028;2022-07-29T00:26:22;1.10;;;0.60;;
23434;SDS011;11890;45.380;11.028;2022-07-29T00:28:50;3.85;;;0.85;;
23434;SDS011;11890;45.380;11.028;2022-07-29T00:31:17;1.45;;;0.60;;
23434;SDS011;11890;45.380;11.028;2022-07-29T00:33:45;2.50;;;1.25;;
23434;SDS011;11890;45.380;11.028;2022-07-29T00:36:12;5.30;;;1.20;;
23434;SDS011;11890;45.380;11.028;2022-07-29T00:38:39;4.53;;;1.00;;
23434;SDS011;11890;45.380;11.028;2022-07-29T00:41:11;2.45;;;0.88;;
23434;SDS011;11890;45.380;11.028;2022-07-29T00:43:39;2.83;;;1.10;;
23434;SDS011;11890;45.380;11.028;2022-07-29T00:46:06;4.13;;;1.00;;
23434;SDS011;11890;45.380;11.028;2022-07-29T00:48:33;2.28;;;0.85;;
23434;SDS011;11890;45.380;11.028;2022-07-29T00:51:02;3.58;;;0.80;;
23434;SDS011;11890;45.380;11.028;2022-07-29T00:53:31;4.57;;;1.10;;
23434;SDS011;11890;45.380;11.028;2022-07-29T00:55:59;3.30;;;1.10;;
23434;SDS011;11890;45.380;11.028;2022-07-29T00:58:26;2.15;;;1.17;;
23434;SDS011;11890;45.380;11.028;2022-07-29T01:00:54;3.78;;;1.08;;
23434;SDS011;11890;45.380;11.028;2022-07-29T01:03:21;2.25;;;0.82;;
23434;SDS011;11890;45.380;11.028;2022-07-29T01:05:49;3.28;;;1.20;;
23434;SDS011;11890;45.380;11.028;2022-07-29T01:08:17;2.63;;;1.05;;
23434;SDS011;11890;45.380;11.028;2022-07-29T01:10:46;3.17;;;1.52;;
23434;SDS011;11890;45.380;11.028;2022-07-29T01:13:14;2.90;;;1.10;;
23434;SDS011;11890;45.380;11.028;2022-07-29T01:15:43;2.15;;;1.17;;
23434;SDS011;11890;45.380;11.028;2022-07-29T01:20:55;1.98;;;1.13;;
23434;SDS011;11890;45.380;11.028;2022-07-29T01:29:04;3.25;;;1.55;;
23434;SDS011;11890;45.380;11.028;2022-07-29T01:34:35;4.30;;;1.30;;
23434;SDS011;11890;45.380;11.028;2022-07-29T01:37:23;2.10;;;1.10;;
23434;SDS011;11890;45.380;11.028;2022-07-29T01:39:58;4.03;;;1.13;;
23434;SDS011;11890;45.380;11.028;2022-07-29T01:50:47;2.53;;;1.30;;
23434;SDS011;11890;45.380;11.028;2022-07-29T01:53:25;3.22;;;1.55;;
23434;SDS011;11890;45.380;11.028;2022-07-29T01:56:04;4.07;;;1.70;;
23434;SDS011;11890;45.380;11.028;2022-07-29T01:58:35;2.50;;;1.52;;
23434;SDS011;11890;45.380;11.028;2022-07-29T02:01:08;4.13;;;1.33;;
23434;SDS011;11890;45.380;11.028;2022-07-29T02:03:37;3.50;;;1.48;;
23434;SDS011;11890;45.380;11.028;2022-07-29T02:06:09;3.97;;;1.50;;
23434;SDS011;11890;45.380;11.028;2022-07-29T02:08:39;5.70;;;1.60;;
23434;SDS011;11890;45.380;11.028;2022-07-29T02:11:07;2.72;;;1.52;;
23434;SDS011;11890;45.380;11.028;2022-07-29T02:13:35;4.13;;;1.75;;
23434;SDS011;11890;45.380;11.028;2022-07-29T02:16:05;3.78;;;1.80;;
23434;SDS011;11890;45.380;11.028;2022-07-29T02:18:36;3.50;;;1.77;;
23434;SDS011;11890;45.380;11.028;2022-07-29T02:21:05;2.83;;;1.73;;
23434;SDS011;11890;45.380;11.028;2022-07-29T02:23:41;4.13;;;1.70;;
23434;SDS011;11890;45.380;11.028;2022-07-29T02:26:17;2.85;;;1.40;;
23434;SDS011;11890;45.380;11.028;2022-07-29T02:28:46;3.67;;;1.58;;
23434;SDS011;11890;45.380;11.028;2022-07-29T02:31:15;3.78;;;1.50;;
23434;SDS011;11890;45.380;11.028;2022-07-29T02:33:46;3.85;;;1.50;;
23434;SDS011;11890;45.380;11.028;2022-07-29T02:36:14;4.45;;;1.83;;
23434;SDS011;11890;45.380;11.028;2022-07-29T02:38:43;2.88;;;1.42;;
23434;SDS011;11890;45.380;11.028;2022-07-29T02:41:27;4.43;;;1.45;;
23434;SDS011;11890;45.380;11.028;2022-07-29T02:43:58;3.00;;;1.58;;
23434;SDS011;11890;45.380;11.028;2022-07-29T02:46:32;3.35;;;1.75;;
23434;SDS011;11890;45.380;11.028;2022-07-29T02:54:56;2.47;;;1.85;;
23434;SDS011;11890;45.380;11.028;2022-07-29T02:57:34;4.13;;;1.75;;
23434;SDS011;11890;45.380;11.028;2022-07-29T03:00:21;4.20;;;2.20;;
23434;SDS011;11890;45.380;11.028;2022-07-29T03:02:52;3.20;;;2.03;;
23434;SDS011;11890;45.380;11.028;2022-07-29T03:05:22;3.55;;;1.75;;
23434;SDS011;11890;45.380;11.028;2022-07-29T03:07:52;3.45;;;1.70;;
23434;SDS011;11890;45.380;11.028;2022-07-29T03:10:31;3.30;;;1.73;;
23434;SDS011;11890;45.380;11.028;2022-07-29T03:12:59;2.72;;;1.58;;
23434;SDS011;11890;45.380;11.028;2022-07-29T03:15:27;4.45;;;2.20;;
23434;SDS011;11890;45.380;11.028;2022-07-29T03:17:56;4.15;;;1.85;;
23434;SDS011;11890;45.380;11.028;2022-07-29T03:20:26;2.80;;;1.75;;
23434;SDS011;11890;45.380;11.028;2022-07-29T03:22:54;2.78;;;1.75;;
23434;SDS011;11890;45.380;11.028;2022-07-29T03:25:21;3.03;;;1.95;;
23434;SDS011;11890;45.380;11.028;2022-07-29T03:27:49;4.25;;;2.53;;
23434;SDS011;11890;45.380;11.028;2022-07-29T03:30:16;5.95;;;2.30;;
23434;SDS011;11890;45.380;11.028;2022-07-29T03:32:49;3.22;;;1.90;;
23434;SDS011;11890;45.380;11.028;2022-07-29T03:35:18;2.92;;;1.83;;
23434;SDS011;11890;45.380;11.028;2022-07-29T03:37:46;3.75;;;1.80;;
23434;SDS011;11890;45.380;11.028;2022-07-29T03:40:18;3.50;;;2.00;;
23434;SDS011;11890;45.380;11.028;2022-07-29T03:42:49;3.30;;;2.10;;
23434;SDS011;11890;45.380;11.028;2022-07-29T03:45:18;4.07;;;2.63;;
23434;SDS011;11890;45.380;11.028;2022-07-29T03:47:48;3.95;;;2.40;;
23434;SDS011;11890;45.380;11.028;2022-07-29T03:50:26;4.38;;;2.22;;
23434;SDS011;11890;45.380;11.028;2022-07-29T03:52:55;4.18;;;2.15;;
23434;SDS011;11890;45.380;11.028;2022-07-29T03:55:23;3.78;;;2.17;;
23434;SDS011;11890;45.380;11.028;2022-07-29T03:57:52;5.13;;;2.10;;
23434;SDS011;11890;45.380;11.028;2022-07-29T04:00:22;6.07;;;2.30;;
23434;SDS011;11890;45.380;11.028;2022-07-29T04:02:52;5.22;;;2.53;;
23434;SDS011;11890;45.380;11.028;2022-07-29T04:05:19;4.60;;;2.65;;
23434;SDS011;11890;45.380;11.028;2022-07-29T04:07:48;3.60;;;2.50;;
23434;SDS011;11890;45.380;11.028;2022-07-29T04:10:16;4.47;;;2.17;;
23434;SDS011;11890;45.380;11.028;2022-07-29T04:12:57;3.55;;;2.55;;
23434;SDS011;11890;45.380;11.028;2022-07-29T04:15:26;4.57;;;2.42;;
23434;SDS011;11890;45.380;11.028;2022-07-29T04:17:58;6.30;;;2.80;;
23434;SDS011;11890;45.380;11.028;2022-07-29T04:20:26;5.15;;;2.50;;
23434;SDS011;11890;45.380;11.028;2022-07-29T04:22:53;4.50;;;2.80;;
23434;SDS011;11890;45.380;11.028;2022-07-29T04:25:21;4.18;;;2.45;;
23434;SDS011;11890;45.380;11.028;2022-07-29T04:27:48;3.65;;;2.25;;
23434;SDS011;11890;45.380;11.028;2022-07-29T04:30:28;5.15;;;3.05;;
23434;SDS011;11890;45.380;11.028;2022-07-29T04:32:57;6.47;;;2.53;;
23434;SDS011;11890;45.380;11.028;2022-07-29T04:35:25;3.40;;;2.25;;
23434;SDS011;11890;45.380;11.028;2022-07-29T04:37:53;6.43;;;2.25;;
23434;SDS011;11890;45.380;11.028;2022-07-29T04:40:20;3.88;;;2.30;;
23434;SDS011;11890;45.380;11.028;2022-07-29T04:42:48;5.07;;;2.28;;
23434;SDS011;11890;45.380;11.028;2022-07-29T04:45:15;13.23;;;7.15;;
23434;SDS011;11890;45.380;11.028;2022-07-29T04:47:48;40.28;;;24.08;;
23434;SDS011;11890;45.380;11.028;2022-07-29T04:50:16;54.47;;;37.40;;
23434;SDS011;11890;45.380;11.028;2022-07-29T04:52:43;105.50;;;58.28;;
23434;SDS011;11890;45.380;11.028;2022-07-29T04:55:11;10.13;;;4.78;;
23434;SDS011;11890;45.380;11.028;2022-07-29T04:57:38;3.78;;;2.40;;
23434;SDS011;11890;45.380;11.028;2022-07-29T05:00:06;4.13;;;2.30;;
23434;SDS011;11890;45.380;11.028;2022-07-29T05:02:34;19.60;;;12.82;;
23434;SDS011;11890;45.380;11.028;2022-07-29T05:05:02;15.25;;;7.93;;
23434;SDS011;11890;45.380;11.028;2022-07-29T05:07:29;14.00;;;8.45;;
23434;SDS011;11890;45.380;11.028;2022-07-29T05:09:57;5.32;;;3.25;;
23434;SDS011;11890;45.380;11.028;2022-07-29T05:12:24;4.05;;;2.60;;
23434;SDS011;11890;45.380;11.028;2022-07-29T05:14:52;5.28;;;2.58;;
23434;SDS011;11890;45.380;11.028;2022-07-29T05:17:20;10.40;;;5.78;;
23434;SDS011;11890;45.380;11.028;2022-07-29T05:19:47;11.50;;;5.82;;
23434;SDS011;11890;45.380;11.028;2022-07-29T05:22:15;5.95;;;3.35;;
23434;SDS011;11890;45.380;11.028;2022-07-29T05:24:42;5.40;;;3.22;;
23434;SDS011;11890;45.380;11.028;2022-07-29T05:27:09;7.15;;;2.97;;
23434;SDS011;11890;45.380;11.028;2022-07-29T05:29:37;5.47;;;3.20;;
23434;SDS011;11890;45.380;11.028;2022-07-29T05:32:11;6.65;;;3.67;;
23434;SDS011;11890;45.380;11.028;2022-07-29T05:34:39;7.05;;;3.42;;
23434;SDS011;11890;45.380;11.028;2022-07-29T05:37:18;5.85;;;3.25;;
23434;SDS011;11890;45.380;11.028;2022-07-29T05:39:46;8.43;;;3.13;;
23434;SDS011;11890;45.380;11.028;2022-07-29T05:42:21;7.05;;;3.50;;
23434;SDS011;11890;45.380;11.028;2022-07-29T05:44:49;5.75;;;3.47;;
23434;SDS011;11890;45.380;11.028;2022-07-29T05:47:17;6.18;;;3.72;;
23434;SDS011;11890;45.380;11.028;2022-07-29T05:49:45;5.68;;;2.95;;
23434;SDS011;11890;45.380;11.028;2022-07-29T05:52:13;5.45;;;3.40;;
23434;SDS011;11890;45.380;11.028;2022-07-29T05:54:40;5.07;;;3.63;;
23434;SDS011;11890;45.380;11.028;2022-07-29T05:57:08;11.23;;;5.60;;
23434;SDS011;11890;45.380;11.028;2022-07-29T05:59:41;8.10;;;4.38;;
23434;SDS011;11890;45.380;11.028;2022-07-29T06:02:08;5.22;;;3.72;;
23434;SDS011;11890;45.380;11.028;2022-07-29T06:04:36;8.05;;;5.13;;
23434;SDS011;11890;45.380;11.028;2022-07-29T06:07:03;9.35;;;4.40;;
23434;SDS011;11890;45.380;11.028;2022-07-29T06:09:31;6.00;;;3.42;;
23434;SDS011;11890;45.380;11.028;2022-07-29T06:12:02;6.30;;;3.90;;
23434;SDS011;11890;45.380;11.028;2022-07-29T06:14:29;6.70;;;3.53;;
23434;SDS011;11890;45.380;11.028;2022-07-29T06:16:57;8.68;;;4.00;;
23434;SDS011;11890;45.380;11.028;2022-07-29T06:19:24;5.20;;;3.05;;
23434;SDS011;11890;45.380;11.028;2022-07-29T06:21:52;5.53;;;3.70;;
23434;SDS011;11890;45.380;11.028;2022-07-29T06:24:20;5.05;;;3.25;;
23434;SDS011;11890;45.380;11.028;2022-07-29T06:26:47;8.13;;;3.13;;
23434;SDS011;11890;45.380;11.028;2022-07-29T06:29:15;5.00;;;3.03;;
23434;SDS011;11890;45.380;11.028;2022-07-29T06:31:42;5.93;;;2.85;;
23434;SDS011;11890;45.380;11.028;2022-07-29T06:34:09;6.82;;;2.88;;
23434;SDS011;11890;45.380;11.028;2022-07-29T06:36:37;5.07;;;3.05;;
23434;SDS011;11890;45.380;11.028;2022-07-29T06:39:07;6.43;;;3.53;;
23434;SDS011;11890;45.380;11.028;2022-07-29T06:41:35;7.45;;;3.92;;
23434;SDS011;11890;45.380;11.028;2022-07-29T06:44:08;4.45;;;2.40;;
23434;SDS011;11890;45.380;11.028;2022-07-29T06:46:36;6.35;;;2.22;;
23434;SDS011;11890;45.380;11.028;2022-07-29T06:49:04;5.85;;;2.65;;
23434;SDS011;11890;45.380;11.028;2022-07-29T06:51:32;4.45;;;2.83;;
23434;SDS011;11890;45.380;11.028;2022-07-29T06:53:59;7.07;;;2.17;;
23434;SDS011;11890;45.380;11.028;2022-07-29T06:56:32;6.55;;;2.78;;
23434;SDS011;11890;45.380;11.028;2022-07-29T06:59:06;3.25;;;2.30;;
23434;SDS011;11890;45.380;11.028;2022-07-29T07:01:39;2.97;;;1.77;;
23434;SDS011;11890;45.380;11.028;2022-07-29T07:04:08;3.85;;;2.55;;
23434;SDS011;11890;45.380;11.028;2022-07-29T07:06:36;5.35;;;2.33;;
23434;SDS011;11890;45.380;11.028;2022-07-29T07:09:04;6.90;;;2.67;;
23434;SDS011;11890;45.380;11.028;2022-07-29T07:11:32;5.07;;;2.60;;
23434;SDS011;11890;45.380;11.028;2022-07-29T07:13:59;4.07;;;2.53;;
23434;SDS011;11890;45.380;11.028;2022-07-29T07:16:30;4.68;;;2.40;;
23434;SDS011;11890;45.380;11.028;2022-07-29T07:18:58;3.63;;;2.08;;
23434;SDS011;11890;45.380;11.028;2022-07-29T07:21:26;4.93;;;2.38;;
23434;SDS011;11890;45.380;11.028;2022-07-29T07:23:56;4.40;;;1.80;;
23434;SDS011;11890;45.380;11.028;2022-07-29T07:26:24;4.07;;;2.20;;
23434;SDS011;11890;45.380;11.028;2022-07-29T07:28:52;6.57;;;2.50;;
23434;SDS011;11890;45.380;11.028;2022-07-29T07:31:19;4.47;;;2.05;;
23434;SDS011;11890;45.380;11.028;2022-07-29T07:33:47;4.88;;;2.00;;
23434;SDS011;11890;45.380;11.028;2022-07-29T07:36:14;4.20;;;2.40;;
23434;SDS011;11890;45.380;11.028;2022-07-29T07:38:42;5.63;;;2.25;;
23434;SDS011;11890;45.380;11.028;2022-07-29T07:41:09;5.32;;;2.20;;
23434;SDS011;11890;45.380;11.028;2022-07-29T07:43:36;4.15;;;2.05;;
23434;SDS011;11890;45.380;11.028;2022-07-29T07:46:04;5.70;;;2.25;;
23434;SDS011;11890;45.380;11.028;2022-07-29T07:48:32;3.58;;;1.70;;
23434;SDS011;11890;45.380;11.028;2022-07-29T07:51:01;2.75;;;1.85;;
23434;SDS011;11890;45.380;11.028;2022-07-29T07:53:28;3.33;;;1.50;;
23434;SDS011;11890;45.380;11.028;2022-07-29T07:55:58;4.75;;;1.90;;
23434;SDS011;11890;45.380;11.028;2022-07-29T07:58:41;5.28;;;2.00;;
23434;SDS011;11890;45.380;11.028;2022-07-29T08:01:08;2.55;;;1.40;;
23434;SDS011;11890;45.380;11.028;2022-07-29T08:03:36;4.25;;;1.83;;
23434;SDS011;11890;45.380;11.028;2022-07-29T08:06:04;3.38;;;1.60;;
23434;SDS011;11890;45.380;11.028;2022-07-29T08:08:32;3.55;;;1.88;;
23434;SDS011;11890;45.380;11.028;2022-07-29T08:11:00;3.78;;;1.75;;
23434;SDS011;11890;45.380;11.028;2022-07-29T08:13:35;5.22;;;2.28;;
23434;SDS011;11890;45.380;11.028;2022-07-29T08:16:05;2.30;;;1.65;;
23434;SDS011;11890;45.380;11.028;2022-07-29T08:18:40;3.75;;;2.60;;
23434;SDS011;11890;45.380;11.028;2022-07-29T08:21:09;5.07;;;2.30;;
23434;SDS011;11890;45.380;11.028;2022-07-29T08:23:41;4.82;;;2.42;;
23434;SDS011;11890;45.380;11.028;2022-07-29T08:26:23;5.60;;;2.53;;
23434;SDS011;11890;45.380;11.028;2022-07-29T08:28:51;2.78;;;1.70;;
23434;SDS011;11890;45.380;11.028;2022-07-29T08:31:18;2.90;;;1.80;;
23434;SDS011;11890;45.380;11.028;2022-07-29T08:33:46;4.45;;;1.90;;
23434;SDS011;11890;45.380;11.028;2022-07-29T08:36:13;3.83;;;1.98;;
23434;SDS011;11890;45.380;11.028;2022-07-29T08:38:40;3.67;;;2.38;;
23434;SDS011;11890;45.380;11.028;2022-07-29T08:41:08;6.35;;;2.13;;
23434;SDS011;11890;45.380;11.028;2022-07-29T08:43:35;3.28;;;1.70;;
23434;SDS011;11890;45.380;11.028;2022-07-29T08:46:04;2.65;;;1.67;;
23434;SDS011;11890;45.380;11.028;2022-07-29T08:48:32;3.33;;;1.75;;
23434;SDS011;11890;45.380;11.028;2022-07-29T08:51:00;5.00;;;2.35;;
23434;SDS011;11890;45.380;11.028;2022-07-29T08:53:30;4.13;;;1.88;;
23434;SDS011;11890;45.380;11.028;2022-07-29T08:55:58;3.53;;;1.98;;
23434;SDS011;11890;45.380;11.028;2022-07-29T08:58:26;3.05;;;1.95;;
23434;SDS011;11890;45.380;11.028;2022-07-29T09:01:02;3.75;;;1.88;;
23434;SDS011;11890;45.380;11.028;2022-07-29T09:03:33;2.78;;;1.90;;
23434;SDS011;11890;45.380;11.028;2022-07-29T09:06:03;4.50;;;1.70;;
23434;SDS011;11890;45.380;11.028;2022-07-29T09:08:31;3.17;;;2.25;;
23434;SDS011;11890;45.380;11.028;2022-07-29T09:11:02;4.13;;;2.10;;
23434;SDS011;11890;45.380;11.028;2022-07-29T09:13:31;5.50;;;2.38;;
23434;SDS011;11890;45.380;11.028;2022-07-29T09:15:59;5.28;;;2.20;;
23434;SDS011;11890;45.380;11.028;2022-07-29T09:18:41;4.85;;;2.33;;
23434;SDS011;11890;45.380;11.028;2022-07-29T09:21:11;3.30;;;2.05;;
23434;SDS011;11890;45.380;11.028;2022-07-29T09:24:06;4.72;;;2.28;;
23434;SDS011;11890;45.380;11.028;2022-07-29T09:26:36;2.55;;;1.73;;
23434;SDS011;11890;45.380;11.028;2022-07-29T09:29:12;2.80;;;1.75;;
23434;SDS011;11890;45.380;11.028;2022-07-29T09:31:44;5.25;;;2.10;;
23434;SDS011;11890;45.380;11.028;2022-07-29T09:34:14;5.90;;;1.65;;
23434;SDS011;11890;45.380;11.028;2022-07-29T09:36:44;2.80;;;1.85;;
23434;SDS011;11890;45.380;11.028;2022-07-29T09:39:13;4.30;;;2.17;;
23434;SDS011;11890;45.380;11.028;2022-07-29T09:41:50;2.72;;;1.70;;
23434;SDS011;11890;45.380;11.028;2022-07-29T09:44:19;4.47;;;2.00;;
23434;SDS011;11890;45.380;11.028;2022-07-29T09:47:02;3.45;;;1.90;;
23434;SDS011;11890;45.380;11.028;2022-07-29T09:52:30;4.28;;;2.42;;
23434;SDS011;11890;45.380;11.028;2022-07-29T09:55:04;3.03;;;1.85;;
23434;SDS011;11890;45.380;11.028;2022-07-29T09:57:32;4.32;;;2.22;;
23434;SDS011;11890;45.380;11.028;2022-07-29T10:00:07;3.80;;;2.28;;
23434;SDS011;11890;45.380;11.028;2022-07-29T10:02:40;3.67;;;1.83;;
23434;SDS011;11890;45.380;11.028;2022-07-29T10:05:20;4.22;;;2.22;;
23434;SDS011;11890;45.380;11.028;2022-07-29T10:07:57;4.20;;;2.13;;
23434;SDS011;11890;45.380;11.028;2022-07-29T10:10:26;5.78;;;1.88;;
23434;SDS011;11890;45.380;11.028;2022-07-29T10:12:54;5.72;;;2.03;;
23434;SDS011;11890;45.380;11.028;2022-07-29T10:15:34;5.25;;;2.33;;
23434;SDS011;11890;45.380;11.028;2022-07-29T10:18:05;3.50;;;2.03;;
23434;SDS011;11890;45.380;11.028;2022-07-29T10:20:33;2.58;;;1.75;;
23434;SDS011;11890;45.380;11.028;2022-07-29T10:23:01;3.50;;;2.00;;
23434;SDS011;11890;45.380;11.028;2022-07-29T10:25:29;3.53;;;2.50;;
23434;SDS011;11890;45.380;11.028;2022-07-29T10:27:58;2.97;;;2.05;;
23434;SDS011;11890;45.380;11.028;2022-07-29T10:30:26;3.65;;;2.15;;
23434;SDS011;11890;45.380;11.028;2022-07-29T10:35:50;3.50;;;2.00;;
23434;SDS011;11890;45.380;11.028;2022-07-29T10:44:02;6.10;;;2.28;;
23434;SDS011;11890;45.380;11.028;2022-07-29T10:46:36;3.22;;;2.13;;
23434;SDS011;11890;45.380;11.028;2022-07-29T10:49:10;3.78;;;2.45;;
23434;SDS011;11890;45.380;11.028;2022-07-29T10:57:15;4.80;;;1.98;;
23434;SDS011;11890;45.380;11.028;2022-07-29T11:02:43;2.63;;;2.08;;
23434;SDS011;11890;45.380;11.028;2022-07-29T11:05:16;2.28;;;1.65;;
23434;SDS011;11890;45.380;11.028;2022-07-29T11:08:29;4.47;;;2.67;;
23434;SDS011;11890;45.380;11.028;2022-07-29T11:10:50;3.38;;;2.22;;
23434;SDS011;11890;45.380;11.028;2022-07-29T11:16:14;5.13;;;2.80;;
23434;SDS011;11890;45.380;11.028;2022-07-29T11:21:55;4.38;;;2.35;;
23434;SDS011;11890;45.380;11.028;2022-07-29T11:24:27;5.68;;;2.20;;
23434;SDS011;11890;45.380;11.028;2022-07-29T11:32:24;4.82;;;2.20;;
23434;SDS011;11890;45.380;11.028;2022-07-29T11:35:18;3.45;;;2.30;;
23434;SDS011;11890;45.380;11.028;2022-07-29T11:38:24;3.60;;;2.30;;
23434;SDS011;11890;45.380;11.028;2022-07-29T11:43:48;3.78;;;2.38;;
23434;SDS011;11890;45.380;11.028;2022-07-29T11:49:19;3.00;;;1.98;;
23434;SDS011;11890;45.380;11.028;2022-07-29T11:51:59;3.67;;;2.30;;
23434;SDS011;11890;45.380;11.028;2022-07-29T11:54:32;4.20;;;2.28;;
23434;SDS011;11890;45.380;11.028;2022-07-29T11:57:21;3.38;;;2.17;;
23434;SDS011;11890;45.380;11.028;2022-07-29T12:00:06;5.90;;;2.47;;
23434;SDS011;11890;45.380;11.028;2022-07-29T12:02:40;4.25;;;2.53;;
23434;SDS011;11890;45.380;11.028;2022-07-29T12:05:14;5.00;;;2.88;;
23434;SDS011;11890;45.380;11.028;2022-07-29T12:10:40;4.82;;;2.50;;
23434;SDS011;11890;45.380;11.028;2022-07-29T12:13:09;5.53;;;2.35;;
23434;SDS011;11890;45.380;11.028;2022-07-29T12:15:38;4.10;;;2.40;;
23434;SDS011;11890;45.380;11.028;2022-07-29T12:18:16;3.67;;;2.30;;
23434;SDS011;11890;45.380;11.028;2022-07-29T12:20:56;5.70;;;2.75;;
23434;SDS011;11890;45.380;11.028;2022-07-29T12:23:29;4.15;;;2.70;;
23434;SDS011;11890;45.380;11.028;2022-07-29T12:26:04;5.20;;;2.60;;
23434;SDS011;11890;45.380;11.028;2022-07-29T12:28:36;4.32;;;2.55;;
23434;SDS011;11890;45.380;11.028;2022-07-29T12:31:05;3.30;;;2.40;;
23434;SDS011;11890;45.380;11.028;2022-07-29T12:33:34;4.05;;;2.55;;
23434;SDS011;11890;45.380;11.028;2022-07-29T12:36:02;4.63;;;2.42;;
23434;SDS011;11890;45.380;11.028;2022-07-29T12:38:36;3.03;;;2.13;;
23434;SDS011;11890;45.380;11.028;2022-07-29T12:41:07;5.28;;;2.80;;
23434;SDS011;11890;45.380;11.028;2022-07-29T12:43:34;3.28;;;2.33;;
23434;SDS011;11890;45.380;11.028;2022-07-29T12:46:14;3.53;;;2.78;;
23434;SDS011;11890;45.380;11.028;2022-07-29T12:48:43;3.80;;;2.47;;
23434;SDS011;11890;45.380;11.028;2022-07-29T12:51:11;3.15;;;2.33;;
23434;SDS011;11890;45.380;11.028;2022-07-29T12:53:41;3.42;;;2.20;;
23434;SDS011;11890;45.380;11.028;2022-07-29T12:56:27;3.85;;;2.40;;
23434;SDS011;11890;45.380;11.028;2022-07-29T12:59:15;3.47;;;2.20;;
23434;SDS011;11890;45.380;11.028;2022-07-29T13:01:52;3.92;;;2.33;;
23434;SDS011;11890;45.380;11.028;2022-07-29T13:04:26;4.55;;;2.80;;
23434;SDS011;11890;45.380;11.028;2022-07-29T13:07:04;3.50;;;2.25;;
23434;SDS011;11890;45.380;11.028;2022-07-29T13:09:40;6.28;;;2.35;;
23434;SDS011;11890;45.380;11.028;2022-07-29T13:12:10;3.30;;;2.20;;
23434;SDS011;11890;45.380;11.028;2022-07-29T13:14:39;3.63;;;2.50;;
23434;SDS011;11890;45.380;11.028;2022-07-29T13:17:15;4.00;;;2.50;;
23434;SDS011;11890;45.380;11.028;2022-07-29T13:19:49;2.95;;;2.13;;
23434;SDS011;11890;45.380;11.028;2022-07-29T13:22:23;2.90;;;2.40;;
23434;SDS011;11890;45.380;11.028;2022-07-29T13:24:52;3.75;;;2.28;;
23434;SDS011;11890;45.380;11.028;2022-07-29T13:27:22;6.10;;;2.28;;
23434;SDS011;11890;45.380;11.028;2022-07-29T13:29:51;5.07;;;2.47;;
23434;SDS011;11890;45.380;11.028;2022-07-29T13:32:20;3.63;;;2.13;;
23434;SDS011;11890;45.380;11.028;2022-07-29T13:34:55;3.75;;;2.90;;
23434;SDS011;11890;45.380;11.028;2022-07-29T13:37:23;2.25;;;1.73;;
23434;SDS011;11890;45.380;11.028;2022-07-29T13:39:51;2.90;;;2.15;;
23434;SDS011;11890;45.380;11.028;2022-07-29T13:42:20;5.60;;;2.30;;
23434;SDS011;11890;45.380;11.028;2022-07-29T13:44:49;6.65;;;2.50;;
23434;SDS011;11890;45.380;11.028;2022-07-29T13:47:21;3.97;;;2.17;;
23434;SDS011;11890;45.380;11.028;2022-07-29T13:49:59;5.47;;;2.58;;
23434;SDS011;11890;45.380;11.028;2022-07-29T13:52:27;4.68;;;2.17;;
23434;SDS011;11890;45.380;11.028;2022-07-29T13:54:55;3.28;;;2.13;;
23434;SDS011;11890;45.380;11.028;2022-07-29T13:57:23;4.40;;;2.17;;
23434;SDS011;11890;45.380;11.028;2022-07-29T13:59:51;5.45;;;2.50;;
23434;SDS011;11890;45.380;11.028;2022-07-29T14:02:20;3.35;;;2.20;;
23434;SDS011;11890;45.380;11.028;2022-07-29T14:04:54;3.45;;;2.63;;
23434;SDS011;11890;45.380;11.028;2022-07-29T14:07:22;4.97;;;2.38;;
23434;SDS011;11890;45.380;11.028;2022-07-29T14:09:49;3.67;;;2.15;;
23434;SDS011;11890;45.380;11.028;2022-07-29T14:12:17;4.22;;;2.55;;
23434;SDS011;11890;45.380;11.028;2022-07-29T14:14:44;5.53;;;1.98;;
23434;SDS011;11890;45.380;11.028;2022-07-29T14:17:13;4.38;;;2.70;;
23434;SDS011;11890;45.380;11.028;2022-07-29T14:19:41;3.70;;;2.40;;
23434;SDS011;11890;45.380;11.028;2022-07-29T14:22:09;3.70;;;2.17;;
23434;SDS011;11890;45.380;11.028;2022-07-29T14:24:37;2.50;;;2.00;;
23434;SDS011;11890;45.380;11.028;2022-07-29T14:27:05;2.97;;;1.90;;
23434;SDS011;11890;45.380;11.028;2022-07-29T14:29:34;3.97;;;2.35;;
23434;SDS011;11890;45.380;11.028;2022-07-29T14:32:04;3.95;;;2.50;;
23434;SDS011;11890;45.380;11.028;2022-07-29T14:34:34;7.45;;;2.70;;
23434;SDS011;11890;45.380;11.028;2022-07-29T14:37:02;5.35;;;2.00;;
23434;SDS011;11890;45.380;11.028;2022-07-29T14:39:32;4.47;;;2.83;;
23434;SDS011;11890;45.380;11.028;2022-07-29T14:42:08;4.38;;;2.75;;
23434;SDS011;11890;45.380;11.028;2022-07-29T14:44:39;5.45;;;2.40;;
23434;SDS011;11890;45.380;11.028;2022-07-29T14:47:08;4.07;;;2.60;;
23434;SDS011;11890;45.380;11.028;2022-07-29T14:49:36;4.07;;;2.28;;
23434;SDS011;11890;45.380;11.028;2022-07-29T14:52:03;6.70;;;2.67;;
23434;SDS011;11890;45.380;11.028;2022-07-29T14:54:31;4.88;;;2.22;;
23434;SDS011;11890;45.380;11.028;2022-07-29T14:56:58;8.02;;;2.95;;
23434;SDS011;11890;45.380;11.028;2022-07-29T14:59:26;3.60;;;2.05;;
23434;SDS011;11890;45.380;11.028;2022-07-29T15:01:53;4.00;;;2.55;;
23434;SDS011;11890;45.380;11.028;2022-07-29T15:04:21;4.20;;;2.20;;
23434;SDS011;11890;45.380;11.028;2022-07-29T15:06:49;5.57;;;2.28;;
23434;SDS011;11890;45.380;11.028;2022-07-29T15:09:16;4.07;;;2.58;;
23434;SDS011;11890;45.380;11.028;2022-07-29T15:11:44;6.82;;;3.80;;
23434;SDS011;11890;45.380;11.028;2022-07-29T15:14:12;5.38;;;3.70;;
23434;SDS011;11890;45.380;11.028;2022-07-29T15:16:39;13.93;;;12.43;;
23434;SDS011;11890;45.380;11.028;2022-07-29T15:19:12;10.90;;;5.47;;
23434;SDS011;11890;45.380;11.028;2022-07-29T15:21:40;7.18;;;6.45;;
23434;SDS011;11890;45.380;11.028;2022-07-29T15:24:18;8.40;;;4.75;;
23434;SDS011;11890;45.380;11.028;2022-07-29T15:26:46;8.00;;;3.53;;
23434;SDS011;11890;45.380;11.028;2022-07-29T15:29:14;5.95;;;3.10;;
23434;SDS011;11890;45.380;11.028;2022-07-29T15:31:42;6.80;;;4.25;;
23434;SDS011;11890;45.380;11.028;2022-07-29T15:34:10;11.05;;;7.90;;
23434;SDS011;11890;45.380;11.028;2022-07-29T15:36:37;6.72;;;3.63;;
23434;SDS011;11890;45.380;11.028;2022-07-29T15:39:20;7.20;;;4.28;;
23434;SDS011;11890;45.380;11.028;2022-07-29T15:41:49;8.82;;;4.85;;
23434;SDS011;11890;45.380;11.028;2022-07-29T15:44:16;5.97;;;4.47;;
23434;SDS011;11890;45.380;11.028;2022-07-29T15:46:47;6.30;;;3.28;;
23434;SDS011;11890;45.380;11.028;2022-07-29T15:49:30;6.35;;;3.53;;
23434;SDS011;11890;45.380;11.028;2022-07-29T15:52:18;4.90;;;3.08;;
23434;SDS011;11890;45.380;11.028;2022-07-29T15:54:55;6.18;;;3.00;;
23434;SDS011;11890;45.380;11.028;2022-07-29T15:57:23;7.18;;;3.40;;
23434;SDS011;11890;45.380;11.028;2022-07-29T15:59:51;6.40;;;3.22;;